createdAt,value
2018-12-13T00:00:27.521Z,7.70
2018-12-13T00:02:55.019Z,7.80
2018-12-13T00:05:22.518Z,7.83
2018-12-13T00:07:49.987Z,8.25
2018-12-13T00:10:17.456Z,8.40
2018-12-13T00:12:44.912Z,8.40
2018-12-13T00:15:12.807Z,9.03
2018-12-13T00:17:40.249Z,8.65
2018-12-13T00:20:07.910Z,9.90
2018-12-13T00:22:35.387Z,9.13
2018-12-13T00:25:02.977Z,9.50
2018-12-13T00:27:30.446Z,10.63
2018-12-13T00:29:57.911Z,8.98
2018-12-13T00:32:25.457Z,8.85
2018-12-13T00:34:52.919Z,9.20
2018-12-13T00:37:20.399Z,9.23
2018-12-13T00:39:47.846Z,9.35
2018-12-13T00:42:15.292Z,9.40
2018-12-13T00:44:42.772Z,8.18
2018-12-13T00:47:10.247Z,10.23
2018-12-13T00:49:37.711Z,10.55
2018-12-13T00:52:05.250Z,8.95
2018-12-13T00:54:33.726Z,9.50
2018-12-13T00:57:01.175Z,10.08
2018-12-13T00:59:28.637Z,9.75
2018-12-13T01:01:56.094Z,8.95
2018-12-13T01:04:23.599Z,8.68
2018-12-13T01:06:51.058Z,10.28
2018-12-13T01:09:18.541Z,11.12
2018-12-13T01:11:46.096Z,10.80
2018-12-13T01:14:13.541Z,9.58
2018-12-13T01:16:41.013Z,9.98
2018-12-13T01:19:08.501Z,10.20
2018-12-13T01:21:36.018Z,9.40
2018-12-13T01:24:03.562Z,9.38
2018-12-13T01:26:31.038Z,9.73
2018-12-13T01:28:58.517Z,9.58
2018-12-13T01:31:25.969Z,9.33
2018-12-13T01:33:53.426Z,9.98
2018-12-13T01:36:20.924Z,10.03
2018-12-13T01:38:49.093Z,9.95
2018-12-13T01:41:16.642Z,10.53
2018-12-13T01:43:44.094Z,10.03
2018-12-13T01:46:11.559Z,10.03
2018-12-13T01:48:39.012Z,7.58
2018-12-13T01:51:06.489Z,10.32
2018-12-13T01:53:33.937Z,9.08
2018-12-13T01:56:01.519Z,9.65
2018-12-13T01:58:29.040Z,8.88
2018-12-13T02:00:56.506Z,9.33
2018-12-13T02:03:23.983Z,9.33
2018-12-13T02:05:51.431Z,9.35
2018-12-13T02:08:18.902Z,9.68
2018-12-13T02:10:46.341Z,9.23
2018-12-13T02:13:13.816Z,9.18
2018-12-13T02:15:41.285Z,10.58
2018-12-13T02:18:08.827Z,9.53
2018-12-13T02:20:37.000Z,9.55
2018-12-13T02:23:04.652Z,9.50
2018-12-13T02:25:32.152Z,9.20
2018-12-13T02:27:59.622Z,9.15
2018-12-13T02:30:27.084Z,10.63
2018-12-13T02:32:54.711Z,10.00
2018-12-13T02:35:22.250Z,10.28
2018-12-13T02:37:49.701Z,9.70
2018-12-13T02:40:17.158Z,10.90
2018-12-13T02:42:44.612Z,10.80
2018-12-13T02:45:12.153Z,11.08
2018-12-13T02:47:39.635Z,10.28
2018-12-13T02:50:07.221Z,9.58
2018-12-13T02:52:34.734Z,11.08
2018-12-13T02:55:02.187Z,10.10
2018-12-13T02:57:29.629Z,9.75
2018-12-13T02:59:57.101Z,11.12
2018-12-13T03:02:24.556Z,10.58
2018-12-13T03:04:52.017Z,10.58
2018-12-13T03:07:19.472Z,11.00
2018-12-13T03:09:47.043Z,10.70
2018-12-13T03:12:14.557Z,9.83
2018-12-13T03:14:42.041Z,11.20
2018-12-13T03:17:09.490Z,10.88
2018-12-13T03:19:36.961Z,13.10
2018-12-13T03:22:04.418Z,10.95
2018-12-13T03:24:32.172Z,9.75
2018-12-13T03:26:59.757Z,10.88
2018-12-13T03:29:27.235Z,10.90
2018-12-13T03:31:55.228Z,10.88
2018-12-13T03:34:22.686Z,9.70
2018-12-13T03:36:50.165Z,10.68
2018-12-13T03:39:17.627Z,9.38
2018-12-13T03:41:45.791Z,9.28
2018-12-13T03:44:13.250Z,10.30
2018-12-13T03:46:40.726Z,8.35
2018-12-13T03:49:08.190Z,9.53
2018-12-13T03:51:36.527Z,10.45
2018-12-13T03:54:04.100Z,9.40
2018-12-13T03:56:31.560Z,9.33
2018-12-13T03:58:59.010Z,8.90
2018-12-13T04:01:26.519Z,8.40
2018-12-13T04:03:53.993Z,9.23
2018-12-13T04:06:21.454Z,8.55
2018-12-13T04:08:48.921Z,8.50
2018-12-13T04:11:16.386Z,8.68
2018-12-13T04:13:43.969Z,8.00
2018-12-13T04:16:11.445Z,8.55
2018-12-13T04:18:38.913Z,8.63
2018-12-13T04:21:06.464Z,10.45
2018-12-13T04:23:34.497Z,8.10
2018-12-13T04:26:01.964Z,8.78
2018-12-13T04:28:29.430Z,8.73
2018-12-13T04:30:56.883Z,8.83
2018-12-13T04:33:24.349Z,8.23
2018-12-13T04:35:51.815Z,8.50
2018-12-13T04:38:19.289Z,9.05
2018-12-13T04:40:46.738Z,9.65
2018-12-13T04:43:14.199Z,7.37
2018-12-13T04:45:41.662Z,8.50
2018-12-13T04:48:09.143Z,7.30
2018-12-13T04:50:36.590Z,8.60
2018-12-13T04:53:04.066Z,8.40
2018-12-13T04:55:31.622Z,8.70
2018-12-13T04:57:59.095Z,8.48
2018-12-13T05:00:26.569Z,8.95
2018-12-13T05:02:54.029Z,9.73
2018-12-13T05:05:21.514Z,8.48
2018-12-13T05:07:48.952Z,8.78
2018-12-13T05:13:34.165Z,9.05
2018-12-13T05:16:01.742Z,7.10
2018-12-13T05:18:29.354Z,9.18
2018-12-13T05:20:56.913Z,7.92
2018-12-13T05:23:24.746Z,8.23
2018-12-13T05:25:52.377Z,7.97
2018-12-13T05:28:19.937Z,8.65
2018-12-13T05:30:47.548Z,7.75
2018-12-13T05:33:15.163Z,7.90
2018-12-13T05:35:42.807Z,8.85
2018-12-13T05:38:11.285Z,9.53
2018-12-13T05:40:38.882Z,8.00
2018-12-13T05:43:06.534Z,7.45
2018-12-13T05:45:34.137Z,8.95
2018-12-13T05:48:01.710Z,8.68
2018-12-13T05:50:29.336Z,8.10
2018-12-13T05:52:56.957Z,8.03
2018-12-13T05:55:24.409Z,8.80
2018-12-13T05:57:51.876Z,8.30
2018-12-13T06:00:19.333Z,8.40
2018-12-13T06:02:46.822Z,7.28
2018-12-13T06:05:14.344Z,8.70
2018-12-13T06:07:41.832Z,9.35
2018-12-13T06:10:09.454Z,8.60
2018-12-13T06:12:36.946Z,8.43
2018-12-13T06:15:05.545Z,8.75
2018-12-13T06:17:33.029Z,9.95
2018-12-13T06:20:00.515Z,8.80
2018-12-13T06:22:27.998Z,9.15
2018-12-13T06:24:55.490Z,9.28
2018-12-13T06:27:23.053Z,9.20
2018-12-13T06:29:50.622Z,9.38
2018-12-13T06:32:18.099Z,8.68
2018-12-13T06:34:45.565Z,9.95
2018-12-13T06:37:13.052Z,9.55
2018-12-13T06:39:40.510Z,9.70
2018-12-13T06:42:07.973Z,9.60
2018-12-13T06:44:35.511Z,9.90
2018-12-13T06:47:02.980Z,9.65
2018-12-13T06:49:30.478Z,10.13
2018-12-13T06:51:57.933Z,9.95
2018-12-13T06:54:25.413Z,11.10
2018-12-13T06:56:52.887Z,10.82
2018-12-13T06:59:20.891Z,10.25
2018-12-13T07:01:48.444Z,10.13
2018-12-13T07:04:15.921Z,10.00
2018-12-13T07:06:43.390Z,10.53
2018-12-13T07:09:10.861Z,10.55
2018-12-13T07:11:38.435Z,9.58
2018-12-13T07:14:06.667Z,11.10
2018-12-13T07:16:34.143Z,9.75
2018-12-13T07:19:01.650Z,11.70
2018-12-13T07:21:29.119Z,10.20
2018-12-13T07:23:56.602Z,11.33
2018-12-13T07:26:24.187Z,10.90
2018-12-13T07:28:51.674Z,11.80
2018-12-13T07:31:19.150Z,11.57
2018-12-13T07:33:46.785Z,11.03
2018-12-13T07:36:14.493Z,12.18
2018-12-13T07:38:41.964Z,12.25
2018-12-13T07:41:09.454Z,10.45
2018-12-13T07:43:36.921Z,12.03
2018-12-13T07:46:21.452Z,11.18
2018-12-13T07:48:48.983Z,11.50
2018-12-13T07:51:16.461Z,13.10
2018-12-13T07:53:44.029Z,11.97
2018-12-13T07:56:11.519Z,12.25
2018-12-13T07:58:39.003Z,11.38
2018-12-13T08:01:06.498Z,11.05
2018-12-13T08:03:33.988Z,11.60
2018-12-13T08:06:01.457Z,13.10
2018-12-13T08:08:28.951Z,11.18
2018-12-13T08:10:56.515Z,12.45
2018-12-13T08:13:24.005Z,12.20
2018-12-13T08:15:51.470Z,12.60
2018-12-13T08:18:18.964Z,13.13
2018-12-13T08:20:46.431Z,11.90
2018-12-13T08:23:13.898Z,12.80
2018-12-13T08:25:41.381Z,14.50
2018-12-13T08:28:08.846Z,12.95
2018-12-13T08:30:36.604Z,12.10
2018-12-13T08:33:04.161Z,11.50
2018-12-13T08:35:32.493Z,12.78
2018-12-13T08:37:59.955Z,12.07
2018-12-13T08:40:27.451Z,13.20
2018-12-13T08:42:54.944Z,13.43
2018-12-13T08:45:22.404Z,14.00
2018-12-13T08:47:49.865Z,12.05
2018-12-13T08:50:17.356Z,13.38
2018-12-13T08:52:44.986Z,14.90
2018-12-13T08:55:12.552Z,14.18
2018-12-13T08:57:40.011Z,13.75
2018-12-13T09:00:07.650Z,13.28
2018-12-13T09:02:35.117Z,13.62
2018-12-13T09:05:03.469Z,14.13
2018-12-13T09:07:30.946Z,12.35
2018-12-13T09:09:58.425Z,13.43
2018-12-13T09:12:25.904Z,13.22
2018-12-13T09:14:53.391Z,14.20
2018-12-13T09:17:21.857Z,14.33
2018-12-13T09:19:49.421Z,15.20
2018-12-13T09:22:16.931Z,14.95
2018-12-13T09:24:44.485Z,14.70
2018-12-13T09:27:11.968Z,13.65
2018-12-13T09:29:39.441Z,13.75
2018-12-13T09:32:06.926Z,13.68
2018-12-13T09:34:34.469Z,11.53
2018-12-13T09:37:01.955Z,13.20
2018-12-13T09:39:29.414Z,12.45
2018-12-13T09:41:56.894Z,14.65
2018-12-13T09:44:24.384Z,12.53
2018-12-13T09:46:51.875Z,14.50
2018-12-13T09:49:19.363Z,14.43
2018-12-13T09:51:46.829Z,12.85
2018-12-13T09:54:14.326Z,13.15
2018-12-13T09:56:41.793Z,13.40
2018-12-13T09:59:09.292Z,13.75
2018-12-13T10:01:36.748Z,13.35
2018-12-13T10:04:04.291Z,13.22
2018-12-13T10:06:31.786Z,14.25
2018-12-13T10:08:59.275Z,13.83
2018-12-13T10:11:26.782Z,13.58
2018-12-13T10:13:54.261Z,14.15
2018-12-13T10:16:21.853Z,14.63
2018-12-13T10:18:49.328Z,15.78
2018-12-13T10:21:16.792Z,16.07
2018-12-13T10:23:44.303Z,15.18
2018-12-13T10:26:11.771Z,15.58
2018-12-13T10:28:39.262Z,14.98
2018-12-13T10:31:06.744Z,14.73
2018-12-13T10:33:34.337Z,15.35
2018-12-13T10:36:01.887Z,14.70
2018-12-13T10:38:29.354Z,14.00
2018-12-13T10:40:56.958Z,15.70
2018-12-13T10:43:24.427Z,16.10
2018-12-13T10:45:51.909Z,15.80
2018-12-13T10:48:19.393Z,15.98
2018-12-13T10:50:46.858Z,16.80
2018-12-13T10:53:14.330Z,15.80
2018-12-13T10:55:41.809Z,15.83
2018-12-13T10:58:09.288Z,15.93
2018-12-13T11:00:39.573Z,14.93
2018-12-13T11:03:22.936Z,17.02
2018-12-13T11:05:50.411Z,16.02
2018-12-13T11:08:17.877Z,15.75
2018-12-13T11:10:45.362Z,15.72
2018-12-13T11:13:12.900Z,16.80
2018-12-13T11:15:40.389Z,16.00
2018-12-13T11:18:08.057Z,15.30
2018-12-13T11:20:35.534Z,15.10
2018-12-13T11:23:03.034Z,14.85
2018-12-13T11:25:30.502Z,16.90
2018-12-13T11:31:08.685Z,13.68
2018-12-13T11:33:36.164Z,14.10
2018-12-13T11:36:03.649Z,15.25
2018-12-13T11:38:31.138Z,14.03
2018-12-13T11:40:58.602Z,14.43
2018-12-13T11:43:26.076Z,13.15
2018-12-13T11:45:53.549Z,13.88
2018-12-13T11:48:21.034Z,13.62
2018-12-13T11:50:48.494Z,12.93
2018-12-13T11:53:15.985Z,10.82
2018-12-13T11:55:43.523Z,10.80
2018-12-13T11:58:11.082Z,11.22
2018-12-13T12:00:38.550Z,10.72
2018-12-13T12:03:06.103Z,11.68
2018-12-13T12:05:33.600Z,11.03
2018-12-13T12:08:01.037Z,9.65
2018-12-13T12:10:28.588Z,9.53
2018-12-13T12:12:56.110Z,10.90
2018-12-13T12:15:23.654Z,10.75
2018-12-13T12:17:51.127Z,11.10
2018-12-13T12:20:18.608Z,11.70
2018-12-13T12:22:46.085Z,10.00
2018-12-13T12:25:13.648Z,11.50
2018-12-13T12:27:41.357Z,12.13
2018-12-13T12:30:09.081Z,11.00
2018-12-13T12:32:36.542Z,11.50
2018-12-13T12:35:04.571Z,10.60
2018-12-13T12:37:32.037Z,10.68
2018-12-13T12:39:59.511Z,10.48
2018-12-13T12:42:27.013Z,10.90
2018-12-13T12:44:54.490Z,11.45
2018-12-13T12:47:21.958Z,9.98
2018-12-13T12:49:49.470Z,12.28
2018-12-13T12:52:16.919Z,10.75
2018-12-13T12:54:44.470Z,12.10
2018-12-13T12:57:13.304Z,9.60
2018-12-13T12:59:40.991Z,11.25
2018-12-13T13:02:08.456Z,11.40
2018-12-13T13:04:35.925Z,11.33
2018-12-13T13:07:03.558Z,12.03
2018-12-13T13:09:31.041Z,11.80
2018-12-13T13:11:58.504Z,9.98
2018-12-13T13:14:25.967Z,10.65
2018-12-13T13:16:53.446Z,10.30
2018-12-13T13:19:20.911Z,12.15
2018-12-13T13:21:48.395Z,9.88
2018-12-13T13:24:15.840Z,11.40
2018-12-13T13:26:43.350Z,12.63
2018-12-13T13:29:10.824Z,10.08
2018-12-13T13:31:38.275Z,9.30
2018-12-13T13:34:05.739Z,9.70
2018-12-13T13:36:33.201Z,10.50
2018-12-13T13:39:00.689Z,11.08
2018-12-13T13:41:28.139Z,11.30
2018-12-13T13:43:55.621Z,9.93
2018-12-13T13:46:23.087Z,11.00
2018-12-13T13:48:50.557Z,10.40
2018-12-13T13:51:18.019Z,10.68
2018-12-13T13:53:45.581Z,10.82
2018-12-13T13:56:13.065Z,11.30
2018-12-13T13:58:40.543Z,10.85
2018-12-13T14:01:08.075Z,10.30
2018-12-13T14:03:36.142Z,10.55
2018-12-13T14:06:03.762Z,9.60
2018-12-13T14:08:31.233Z,11.40
2018-12-13T14:10:58.701Z,10.55
2018-12-13T14:13:26.150Z,10.23
2018-12-13T14:15:53.646Z,12.05
2018-12-13T14:18:21.137Z,11.97
2018-12-13T14:20:48.617Z,10.28
2018-12-13T14:23:16.172Z,11.40
2018-12-13T14:25:44.028Z,9.05
2018-12-13T14:28:11.461Z,10.60
2018-12-13T14:30:38.986Z,11.85
2018-12-13T14:33:06.439Z,12.15
2018-12-13T14:35:33.917Z,10.32
2018-12-13T14:38:01.379Z,10.43
2018-12-13T14:40:28.859Z,10.95
2018-12-13T14:42:56.329Z,9.98
2018-12-13T14:45:23.882Z,10.23
2018-12-13T14:47:51.380Z,10.48
2018-12-13T14:50:18.844Z,9.50
2018-12-13T14:52:46.337Z,10.08
2018-12-13T14:55:13.781Z,10.70
2018-12-13T14:57:41.257Z,9.73
2018-12-13T15:00:09.066Z,12.60
2018-12-13T15:02:36.539Z,10.72
2018-12-13T15:05:04.507Z,9.37
2018-12-13T15:07:32.072Z,10.70
2018-12-13T15:09:59.548Z,11.45
2018-12-13T15:12:27.044Z,12.65
2018-12-13T15:14:54.502Z,10.60
2018-12-13T15:17:22.083Z,11.12
2018-12-13T15:19:49.562Z,9.40
2018-12-13T15:22:17.033Z,10.60
2018-12-13T15:24:44.495Z,9.78
2018-12-13T15:27:11.992Z,9.95
2018-12-13T15:29:39.468Z,9.78
2018-12-13T15:32:07.031Z,12.05
2018-12-13T15:34:34.511Z,11.43
2018-12-13T15:37:02.002Z,10.45
2018-12-13T15:39:29.444Z,9.83
2018-12-13T15:41:56.930Z,10.95
2018-12-13T15:44:25.152Z,10.45
2018-12-13T15:46:52.979Z,9.03
2018-12-13T15:49:21.249Z,11.55
2018-12-13T15:51:48.771Z,11.85
2018-12-13T15:54:16.248Z,10.03
2018-12-13T15:56:43.701Z,11.10
2018-12-13T15:59:11.169Z,12.00
2018-12-13T16:01:38.662Z,11.12
2018-12-13T16:04:06.102Z,9.65
2018-12-13T16:06:33.596Z,11.18
2018-12-13T16:09:01.037Z,10.60
2018-12-13T16:11:28.511Z,10.10
2018-12-13T16:13:55.957Z,9.10
2018-12-13T16:16:24.177Z,8.85
2018-12-13T16:18:51.629Z,12.20
2018-12-13T16:21:19.115Z,10.08
2018-12-13T16:23:46.577Z,10.65
2018-12-13T16:26:14.066Z,11.25
2018-12-13T16:28:41.530Z,8.50
2018-12-13T16:31:09.017Z,10.00
2018-12-13T16:33:36.489Z,11.03
2018-12-13T16:36:03.965Z,11.70
2018-12-13T16:38:31.444Z,10.85
2018-12-13T16:40:58.904Z,10.20
2018-12-13T16:43:26.372Z,8.83
2018-12-13T16:45:53.911Z,12.03
2018-12-13T16:48:21.385Z,10.90
2018-12-13T16:50:48.853Z,10.18
2018-12-13T16:53:16.339Z,10.38
2018-12-13T16:55:43.862Z,9.68
2018-12-13T16:58:11.384Z,11.80
2018-12-13T17:00:38.854Z,10.90
2018-12-13T17:03:18.388Z,11.15
2018-12-13T17:05:45.849Z,11.00
2018-12-13T17:08:14.257Z,11.53
2018-12-13T17:10:41.796Z,11.50
2018-12-13T17:13:09.262Z,11.88
2018-12-13T17:15:36.719Z,10.72
2018-12-13T17:18:04.226Z,11.48
2018-12-13T17:20:31.674Z,11.35
2018-12-13T17:22:59.122Z,9.43
2018-12-13T17:25:26.609Z,11.45
2018-12-13T17:27:54.100Z,11.22
2018-12-13T17:30:21.615Z,11.70
2018-12-13T17:32:49.146Z,11.10
2018-12-13T17:35:16.631Z,13.30
2018-12-13T17:37:44.134Z,9.40
2018-12-13T17:40:11.655Z,11.05
2018-12-13T17:42:39.113Z,11.20
2018-12-13T17:45:06.635Z,12.18
2018-12-13T17:47:34.131Z,13.58
2018-12-13T17:50:01.661Z,11.50
2018-12-13T17:52:29.162Z,10.82
2018-12-13T17:54:56.627Z,10.70
2018-12-13T17:57:24.125Z,10.70
2018-12-13T17:59:51.749Z,12.07
2018-12-13T18:02:19.237Z,11.75
2018-12-13T18:04:46.711Z,11.83
2018-12-13T18:07:14.457Z,11.57
2018-12-13T18:09:41.922Z,12.88
2018-12-13T18:12:09.421Z,12.35
2018-12-13T18:14:36.877Z,11.12
2018-12-13T18:17:04.406Z,10.95
2018-12-13T18:19:31.866Z,14.23
2018-12-13T18:21:59.713Z,11.73
2018-12-13T18:24:27.328Z,12.80
2018-12-13T18:26:54.846Z,12.82
2018-12-13T18:29:23.054Z,12.90
2018-12-13T18:31:50.502Z,11.57
2018-12-13T18:34:18.019Z,12.98
2018-12-13T18:36:45.475Z,12.40
2018-12-13T18:39:12.961Z,13.75
2018-12-13T18:41:40.490Z,13.20
2018-12-13T18:44:08.217Z,11.95
2018-12-13T18:46:35.690Z,13.10
2018-12-13T18:49:03.225Z,13.72
2018-12-13T18:51:30.711Z,13.48
2018-12-13T18:53:58.183Z,14.73
2018-12-13T18:56:25.740Z,12.43
2018-12-13T18:58:53.198Z,12.33
2018-12-13T19:01:20.670Z,13.45
2018-12-13T19:03:48.134Z,13.32
2018-12-13T19:06:15.653Z,10.98
2018-12-13T19:08:43.131Z,13.98
2018-12-13T19:11:10.776Z,12.80
2018-12-13T19:13:38.258Z,12.60
2018-12-13T19:16:06.326Z,14.78
2018-12-13T19:18:33.782Z,13.40
2018-12-13T19:21:01.273Z,13.55
2018-12-13T19:23:28.731Z,14.83
2018-12-13T19:25:56.331Z,15.63
2018-12-13T19:28:23.767Z,12.98
2018-12-13T19:30:51.258Z,13.68
2018-12-13T19:33:18.778Z,13.62
2018-12-13T19:35:46.280Z,16.10
2018-12-13T19:38:13.826Z,14.30
2018-12-13T19:40:41.362Z,12.53
2018-12-13T19:43:08.854Z,13.70
2018-12-13T19:45:36.322Z,14.90
2018-12-13T19:48:03.799Z,15.63
2018-12-13T19:50:31.374Z,15.85
2018-12-13T19:52:58.858Z,14.85
2018-12-13T19:55:26.322Z,15.68
2018-12-13T19:57:53.826Z,16.52
2018-12-13T20:00:21.292Z,16.12
2018-12-13T20:02:48.767Z,15.60
2018-12-13T20:05:16.241Z,16.57
2018-12-13T20:07:43.738Z,14.85
2018-12-13T20:10:11.220Z,16.85
2018-12-13T20:12:38.899Z,15.80
2018-12-13T20:15:06.526Z,16.10
2018-12-13T20:17:34.016Z,17.00
2018-12-13T20:20:01.506Z,15.00
2018-12-13T20:22:28.954Z,18.25
2018-12-13T20:24:56.431Z,16.27
2018-12-13T20:27:24.053Z,17.50
2018-12-13T20:29:51.562Z,17.45
2018-12-13T20:32:19.479Z,16.00
2018-12-13T20:34:47.206Z,14.93
2018-12-13T20:37:14.717Z,16.45
2018-12-13T20:39:42.249Z,16.95
2018-12-13T20:42:09.749Z,15.93
2018-12-13T20:44:37.230Z,15.23
2018-12-13T20:47:04.699Z,17.40
2018-12-13T20:49:32.157Z,15.80
2018-12-13T20:51:59.632Z,16.70
2018-12-13T20:54:27.111Z,16.73
2018-12-13T20:56:54.602Z,16.85
2018-12-13T21:01:51.515Z,17.00
2018-12-13T21:04:19.063Z,18.17
2018-12-13T21:06:48.505Z,17.35
2018-12-13T21:09:15.950Z,16.25
2018-12-13T21:11:43.443Z,17.55
2018-12-13T21:14:10.889Z,17.50
2018-12-13T21:16:38.389Z,17.80
2018-12-13T21:19:05.886Z,17.15
2018-12-13T21:21:33.360Z,18.20
2018-12-13T21:24:00.823Z,18.15
2018-12-13T21:26:28.306Z,18.30
2018-12-13T21:28:55.762Z,16.77
2018-12-13T21:31:23.240Z,18.90
2018-12-13T21:33:50.761Z,18.00
2018-12-13T21:36:18.233Z,18.15
2018-12-13T21:38:45.699Z,17.30
2018-12-13T21:41:13.963Z,19.85
2018-12-13T21:43:41.435Z,17.52
2018-12-13T21:46:08.936Z,18.30
2018-12-13T21:48:36.421Z,18.23
2018-12-13T21:51:03.870Z,20.75
2018-12-13T21:53:31.499Z,18.40
2018-12-13T21:55:58.945Z,18.23
2018-12-13T21:58:26.430Z,16.97
2018-12-13T22:00:53.922Z,20.00
2018-12-13T22:03:21.418Z,18.48
2018-12-13T22:05:48.893Z,18.35
2018-12-13T22:08:16.378Z,21.15
2018-12-13T22:10:43.827Z,18.30
2018-12-13T22:13:11.301Z,19.07
2018-12-13T22:15:38.759Z,20.50
2018-12-13T22:18:06.235Z,19.00
2018-12-13T22:20:33.698Z,17.67
2018-12-13T22:23:01.177Z,17.45
2018-12-13T22:25:28.643Z,18.80
2018-12-13T22:27:56.102Z,17.87
2018-12-13T22:30:23.587Z,19.75
2018-12-13T22:32:51.041Z,19.45
2018-12-13T22:35:18.523Z,17.80
2018-12-13T22:37:46.033Z,19.00
2018-12-13T22:40:13.537Z,16.75
2018-12-13T22:42:40.990Z,17.50
2018-12-13T22:45:08.530Z,18.12
2018-12-13T22:47:36.149Z,17.62
2018-12-13T22:50:03.913Z,19.20
2018-12-13T22:52:31.378Z,17.90
2018-12-13T22:54:58.867Z,17.23
2018-12-13T22:57:26.314Z,20.25
2018-12-13T22:59:53.793Z,17.80
2018-12-13T23:02:21.245Z,18.20
2018-12-13T23:04:48.704Z,16.73
2018-12-13T23:07:16.190Z,18.73
2018-12-13T23:09:43.722Z,17.52
2018-12-13T23:12:11.205Z,17.10
2018-12-13T23:14:39.002Z,17.60
2018-12-13T23:17:06.867Z,17.35
2018-12-13T23:19:34.316Z,15.88
2018-12-13T23:22:01.897Z,19.37
2018-12-13T23:24:29.436Z,16.85
2018-12-13T23:26:56.918Z,16.90
2018-12-13T23:29:24.373Z,17.15
2018-12-13T23:31:51.839Z,15.20
2018-12-13T23:34:19.862Z,16.02
2018-12-13T23:36:47.318Z,16.87
2018-12-13T23:39:14.780Z,18.25
2018-12-13T23:41:42.345Z,16.15
2018-12-13T23:44:09.840Z,15.90
2018-12-13T23:46:37.286Z,17.65
2018-12-13T23:49:04.840Z,16.27
2018-12-13T23:51:32.346Z,15.50
2018-12-13T23:53:59.818Z,16.37
2018-12-13T23:56:27.277Z,17.00
2018-12-13T23:58:54.766Z,15.30
